sensor_id;sensor_type;location;lat;lon;timestamp;P1;durP1;ratioP1;P2;durP2;ratioP2
5245;SDS011;54412;51.206;6.888;2023-07-24T00:01:58;4.50;;;3.03;;
5245;SDS011;54412;51.206;6.888;2023-07-24T00:04:23;3.10;;;2.90;;
5245;SDS011;54412;51.206;6.888;2023-07-24T00:06:49;3.57;;;2.60;;
5245;SDS011;54412;51.206;6.888;2023-07-24T00:09:15;4.17;;;3.13;;
5245;SDS011;54412;51.206;6.888;2023-07-24T00:11:40;4.07;;;3.07;;
5245;SDS011;54412;51.206;6.888;2023-07-24T00:14:06;3.00;;;2.80;;
5245;SDS011;54412;51.206;6.888;2023-07-24T00:16:32;4.20;;;3.37;;
5245;SDS011;54412;51.206;6.888;2023-07-24T00:18:57;4.23;;;2.50;;
5245;SDS011;54412;51.206;6.888;2023-07-24T00:21:23;3.20;;;3.00;;
5245;SDS011;54412;51.206;6.888;2023-07-24T00:23:49;4.20;;;3.23;;
5245;SDS011;54412;51.206;6.888;2023-07-24T00:26:14;3.43;;;3.20;;
5245;SDS011;54412;51.206;6.888;2023-07-24T00:28:40;4.40;;;2.80;;
5245;SDS011;54412;51.206;6.888;2023-07-24T00:31:06;3.93;;;3.17;;
5245;SDS011;54412;51.206;6.888;2023-07-24T00:33:32;3.50;;;2.60;;
5245;SDS011;54412;51.206;6.888;2023-07-24T00:35:57;5.10;;;3.50;;
5245;SDS011;54412;51.206;6.888;2023-07-24T00:38:23;3.60;;;2.30;;
5245;SDS011;54412;51.206;6.888;2023-07-24T00:40:49;4.53;;;3.23;;
5245;SDS011;54412;51.206;6.888;2023-07-24T00:43:15;3.77;;;3.33;;
5245;SDS011;54412;51.206;6.888;2023-07-24T00:45:41;6.17;;;3.17;;
5245;SDS011;54412;51.206;6.888;2023-07-24T00:48:11;3.57;;;3.17;;
5245;SDS011;54412;51.206;6.888;2023-07-24T00:50:36;4.20;;;3.77;;
5245;SDS011;54412;51.206;6.888;2023-07-24T00:53:03;3.73;;;2.70;;
5245;SDS011;54412;51.206;6.888;2023-07-24T00:55:30;5.90;;;3.20;;
5245;SDS011;54412;51.206;6.888;2023-07-24T00:57:58;3.27;;;2.83;;
5245;SDS011;54412;51.206;6.888;2023-07-24T01:00:25;3.07;;;2.87;;
5245;SDS011;54412;51.206;6.888;2023-07-24T01:02:51;3.33;;;3.03;;
5245;SDS011;54412;51.206;6.888;2023-07-24T01:05:19;3.00;;;2.80;;
5245;SDS011;54412;51.206;6.888;2023-07-24T01:07:47;7.17;;;3.83;;
5245;SDS011;54412;51.206;6.888;2023-07-24T01:10:13;3.87;;;2.67;;
5245;SDS011;54412;51.206;6.888;2023-07-24T01:15:50;3.47;;;2.93;;
5245;SDS011;54412;51.206;6.888;2023-07-24T01:18:35;4.90;;;3.43;;
5245;SDS011;54412;51.206;6.888;2023-07-24T01:21:04;3.77;;;3.20;;
5245;SDS011;54412;51.206;6.888;2023-07-24T01:26:23;4.23;;;3.80;;
5245;SDS011;54412;51.206;6.888;2023-07-24T01:28:50;7.40;;;3.87;;
5245;SDS011;54412;51.206;6.888;2023-07-24T01:31:16;5.60;;;3.23;;
5245;SDS011;54412;51.206;6.888;2023-07-24T01:33:42;12.87;;;4.93;;
5245;SDS011;54412;51.206;6.888;2023-07-24T01:36:09;4.13;;;3.83;;
5245;SDS011;54412;51.206;6.888;2023-07-24T01:38:36;6.43;;;3.30;;
5245;SDS011;54412;51.206;6.888;2023-07-24T01:41:03;3.80;;;3.50;;
5245;SDS011;54412;51.206;6.888;2023-07-24T01:43:29;4.17;;;3.80;;
5245;SDS011;54412;51.206;6.888;2023-07-24T01:45:57;5.40;;;4.23;;
5245;SDS011;54412;51.206;6.888;2023-07-24T01:48:23;6.43;;;3.73;;
5245;SDS011;54412;51.206;6.888;2023-07-24T01:50:49;7.20;;;3.47;;
5245;SDS011;54412;51.206;6.888;2023-07-24T01:53:15;5.10;;;3.73;;
5245;SDS011;54412;51.206;6.888;2023-07-24T01:55:41;6.23;;;3.90;;
5245;SDS011;54412;51.206;6.888;2023-07-24T01:58:07;5.00;;;4.00;;
5245;SDS011;54412;51.206;6.888;2023-07-24T02:00:32;4.17;;;3.77;;
5245;SDS011;54412;51.206;6.888;2023-07-24T02:02:58;5.13;;;4.53;;
5245;SDS011;54412;51.206;6.888;2023-07-24T02:05:25;7.00;;;3.97;;
5245;SDS011;54412;51.206;6.888;2023-07-24T02:07:51;4.37;;;3.97;;
5245;SDS011;54412;51.206;6.888;2023-07-24T02:10:17;4.53;;;3.73;;
5245;SDS011;54412;51.206;6.888;2023-07-24T02:12:43;4.43;;;4.03;;
5245;SDS011;54412;51.206;6.888;2023-07-24T02:15:08;3.33;;;3.13;;
5245;SDS011;54412;51.206;6.888;2023-07-24T02:17:34;5.50;;;4.50;;
5245;SDS011;54412;51.206;6.888;2023-07-24T02:20:00;4.27;;;3.90;;
5245;SDS011;54412;51.206;6.888;2023-07-24T02:22:26;3.87;;;3.57;;
5245;SDS011;54412;51.206;6.888;2023-07-24T02:24:52;4.27;;;3.80;;
5245;SDS011;54412;51.206;6.888;2023-07-24T02:27:25;4.23;;;3.93;;
5245;SDS011;54412;51.206;6.888;2023-07-24T02:29:52;6.10;;;4.90;;
5245;SDS011;54412;51.206;6.888;2023-07-24T02:32:19;5.67;;;4.10;;
5245;SDS011;54412;51.206;6.888;2023-07-24T02:34:48;8.17;;;4.47;;
5245;SDS011;54412;51.206;6.888;2023-07-24T02:37:17;6.53;;;4.20;;
5245;SDS011;54412;51.206;6.888;2023-07-24T02:39:44;7.43;;;4.23;;
5245;SDS011;54412;51.206;6.888;2023-07-24T02:42:10;9.77;;;4.10;;
5245;SDS011;54412;51.206;6.888;2023-07-24T02:44:36;9.23;;;4.97;;
5245;SDS011;54412;51.206;6.888;2023-07-24T02:47:03;8.63;;;4.30;;
5245;SDS011;54412;51.206;6.888;2023-07-24T02:49:29;5.73;;;4.43;;
5245;SDS011;54412;51.206;6.888;2023-07-24T02:51:55;6.63;;;4.90;;
5245;SDS011;54412;51.206;6.888;2023-07-24T02:54:20;5.30;;;4.77;;
5245;SDS011;54412;51.206;6.888;2023-07-24T02:56:46;5.40;;;4.70;;
5245;SDS011;54412;51.206;6.888;2023-07-24T02:59:12;5.63;;;4.60;;
5245;SDS011;54412;51.206;6.888;2023-07-24T03:01:37;5.13;;;4.30;;
5245;SDS011;54412;51.206;6.888;2023-07-24T03:04:03;4.80;;;4.37;;
5245;SDS011;54412;51.206;6.888;2023-07-24T03:06:30;9.80;;;4.80;;
5245;SDS011;54412;51.206;6.888;2023-07-24T03:08:57;7.23;;;4.20;;
5245;SDS011;54412;51.206;6.888;2023-07-24T03:11:22;6.70;;;4.67;;
5245;SDS011;54412;51.206;6.888;2023-07-24T03:13:48;6.97;;;4.30;;
5245;SDS011;54412;51.206;6.888;2023-07-24T03:16:14;4.97;;;4.50;;
5245;SDS011;54412;51.206;6.888;2023-07-24T03:18:42;4.90;;;4.37;;
5245;SDS011;54412;51.206;6.888;2023-07-24T03:21:07;8.00;;;4.70;;
5245;SDS011;54412;51.206;6.888;2023-07-24T03:23:34;6.13;;;5.13;;
5245;SDS011;54412;51.206;6.888;2023-07-24T03:26:00;5.97;;;4.50;;
5245;SDS011;54412;51.206;6.888;2023-07-24T03:28:25;6.00;;;4.67;;
5245;SDS011;54412;51.206;6.888;2023-07-24T03:30:52;7.40;;;4.80;;
5245;SDS011;54412;51.206;6.888;2023-07-24T03:33:17;5.50;;;4.53;;
5245;SDS011;54412;51.206;6.888;2023-07-24T03:35:43;6.53;;;4.67;;
5245;SDS011;54412;51.206;6.888;2023-07-24T03:38:09;6.27;;;5.03;;
5245;SDS011;54412;51.206;6.888;2023-07-24T03:40:34;4.37;;;4.00;;
5245;SDS011;54412;51.206;6.888;2023-07-24T03:43:00;5.80;;;4.83;;
5245;SDS011;54412;51.206;6.888;2023-07-24T03:45:26;6.20;;;4.37;;
5245;SDS011;54412;51.206;6.888;2023-07-24T03:47:51;7.20;;;4.60;;
5245;SDS011;54412;51.206;6.888;2023-07-24T03:50:17;5.83;;;4.67;;
5245;SDS011;54412;51.206;6.888;2023-07-24T03:52:43;5.70;;;4.33;;
5245;SDS011;54412;51.206;6.888;2023-07-24T03:55:08;5.90;;;4.10;;
5245;SDS011;54412;51.206;6.888;2023-07-24T03:57:35;7.43;;;5.13;;
5245;SDS011;54412;51.206;6.888;2023-07-24T04:00:01;8.10;;;5.00;;
5245;SDS011;54412;51.206;6.888;2023-07-24T04:02:28;5.43;;;4.93;;
5245;SDS011;54412;51.206;6.888;2023-07-24T04:04:53;7.00;;;5.17;;
5245;SDS011;54412;51.206;6.888;2023-07-24T04:07:19;5.10;;;4.60;;
5245;SDS011;54412;51.206;6.888;2023-07-24T04:09:45;8.53;;;5.27;;
5245;SDS011;54412;51.206;6.888;2023-07-24T04:12:10;6.10;;;4.87;;
5245;SDS011;54412;51.206;6.888;2023-07-24T04:14:36;5.07;;;4.67;;
5245;SDS011;54412;51.206;6.888;2023-07-24T04:17:01;10.03;;;4.93;;
5245;SDS011;54412;51.206;6.888;2023-07-24T04:19:27;10.83;;;5.30;;
5245;SDS011;54412;51.206;6.888;2023-07-24T04:21:53;9.13;;;5.37;;
5245;SDS011;54412;51.206;6.888;2023-07-24T04:24:18;5.23;;;4.70;;
5245;SDS011;54412;51.206;6.888;2023-07-24T04:26:44;8.80;;;5.23;;
5245;SDS011;54412;51.206;6.888;2023-07-24T04:29:10;5.60;;;4.87;;
5245;SDS011;54412;51.206;6.888;2023-07-24T04:31:36;5.47;;;4.97;;
5245;SDS011;54412;51.206;6.888;2023-07-24T04:34:01;5.77;;;5.23;;
5245;SDS011;54412;51.206;6.888;2023-07-24T04:36:27;8.03;;;5.40;;
5245;SDS011;54412;51.206;6.888;2023-07-24T04:38:53;8.77;;;5.23;;
5245;SDS011;54412;51.206;6.888;2023-07-24T04:41:19;10.70;;;5.80;;
5245;SDS011;54412;51.206;6.888;2023-07-24T04:43:44;5.30;;;4.80;;
5245;SDS011;54412;51.206;6.888;2023-07-24T04:46:10;6.73;;;4.67;;
5245;SDS011;54412;51.206;6.888;2023-07-24T04:48:35;7.60;;;4.80;;
5245;SDS011;54412;51.206;6.888;2023-07-24T04:51:01;6.80;;;5.03;;
5245;SDS011;54412;51.206;6.888;2023-07-24T04:53:27;5.50;;;5.00;;
5245;SDS011;54412;51.206;6.888;2023-07-24T04:55:53;8.07;;;4.87;;
5245;SDS011;54412;51.206;6.888;2023-07-24T04:58:18;9.30;;;5.13;;
5245;SDS011;54412;51.206;6.888;2023-07-24T05:00:44;7.07;;;5.27;;
5245;SDS011;54412;51.206;6.888;2023-07-24T05:03:09;6.97;;;5.27;;
5245;SDS011;54412;51.206;6.888;2023-07-24T05:05:36;9.70;;;5.40;;
5245;SDS011;54412;51.206;6.888;2023-07-24T05:08:03;16.20;;;4.50;;
5245;SDS011;54412;51.206;6.888;2023-07-24T05:10:34;6.03;;;4.70;;
5245;SDS011;54412;51.206;6.888;2023-07-24T05:13:01;7.73;;;5.10;;
5245;SDS011;54412;51.206;6.888;2023-07-24T05:15:26;7.10;;;5.47;;
5245;SDS011;54412;51.206;6.888;2023-07-24T05:17:52;7.70;;;5.37;;
5245;SDS011;54412;51.206;6.888;2023-07-24T05:20:18;8.73;;;4.40;;
5245;SDS011;54412;51.206;6.888;2023-07-24T05:22:43;5.23;;;4.73;;
5245;SDS011;54412;51.206;6.888;2023-07-24T05:25:09;7.63;;;5.27;;
5245;SDS011;54412;51.206;6.888;2023-07-24T05:27:35;8.93;;;5.10;;
5245;SDS011;54412;51.206;6.888;2023-07-24T05:30:01;6.03;;;4.60;;
5245;SDS011;54412;51.206;6.888;2023-07-24T05:32:27;8.30;;;4.90;;
5245;SDS011;54412;51.206;6.888;2023-07-24T05:34:52;10.50;;;4.80;;
5245;SDS011;54412;51.206;6.888;2023-07-24T05:37:18;7.43;;;4.53;;
5245;SDS011;54412;51.206;6.888;2023-07-24T05:39:44;6.23;;;4.17;;
5245;SDS011;54412;51.206;6.888;2023-07-24T05:42:09;6.97;;;4.77;;
5245;SDS011;54412;51.206;6.888;2023-07-24T05:44:35;9.50;;;4.87;;
5245;SDS011;54412;51.206;6.888;2023-07-24T05:47:02;7.70;;;5.23;;
5245;SDS011;54412;51.206;6.888;2023-07-24T05:49:28;6.10;;;4.77;;
5245;SDS011;54412;51.206;6.888;2023-07-24T05:51:54;5.70;;;4.87;;
5245;SDS011;54412;51.206;6.888;2023-07-24T05:54:21;9.40;;;5.90;;
5245;SDS011;54412;51.206;6.888;2023-07-24T05:56:47;11.53;;;5.90;;
5245;SDS011;54412;51.206;6.888;2023-07-24T05:59:13;7.47;;;5.17;;
5245;SDS011;54412;51.206;6.888;2023-07-24T06:01:38;6.30;;;4.27;;
5245;SDS011;54412;51.206;6.888;2023-07-24T06:04:04;7.73;;;4.97;;
5245;SDS011;54412;51.206;6.888;2023-07-24T06:06:32;7.00;;;4.83;;
5245;SDS011;54412;51.206;6.888;2023-07-24T06:08:58;6.17;;;4.10;;
5245;SDS011;54412;51.206;6.888;2023-07-24T06:11:23;17.70;;;4.40;;
5245;SDS011;54412;51.206;6.888;2023-07-24T06:13:51;5.00;;;4.50;;
5245;SDS011;54412;51.206;6.888;2023-07-24T06:16:17;6.80;;;4.73;;
5245;SDS011;54412;51.206;6.888;2023-07-24T06:18:43;7.53;;;4.33;;
5245;SDS011;54412;51.206;6.888;2023-07-24T06:21:09;4.93;;;4.20;;
5245;SDS011;54412;51.206;6.888;2023-07-24T06:23:35;11.80;;;5.20;;
5245;SDS011;54412;51.206;6.888;2023-07-24T06:26:00;5.37;;;4.50;;
5245;SDS011;54412;51.206;6.888;2023-07-24T06:28:26;6.93;;;4.40;;
5245;SDS011;54412;51.206;6.888;2023-07-24T06:30:53;7.77;;;4.70;;
5245;SDS011;54412;51.206;6.888;2023-07-24T06:33:19;4.70;;;4.20;;
5245;SDS011;54412;51.206;6.888;2023-07-24T06:35:47;5.10;;;4.50;;
5245;SDS011;54412;51.206;6.888;2023-07-24T06:38:14;4.60;;;4.07;;
5245;SDS011;54412;51.206;6.888;2023-07-24T06:40:40;7.67;;;4.40;;
5245;SDS011;54412;51.206;6.888;2023-07-24T06:43:06;5.67;;;4.23;;
5245;SDS011;54412;51.206;6.888;2023-07-24T06:45:31;6.40;;;4.30;;
5245;SDS011;54412;51.206;6.888;2023-07-24T06:47:57;5.30;;;4.23;;
5245;SDS011;54412;51.206;6.888;2023-07-24T06:50:23;4.93;;;4.10;;
5245;SDS011;54412;51.206;6.888;2023-07-24T06:52:48;6.87;;;4.70;;
5245;SDS011;54412;51.206;6.888;2023-07-24T06:55:16;5.70;;;4.87;;
5245;SDS011;54412;51.206;6.888;2023-07-24T06:57:42;8.33;;;4.60;;
5245;SDS011;54412;51.206;6.888;2023-07-24T07:00:07;9.93;;;3.97;;
5245;SDS011;54412;51.206;6.888;2023-07-24T07:02:36;6.60;;;4.07;;
5245;SDS011;54412;51.206;6.888;2023-07-24T07:05:03;4.67;;;4.27;;
5245;SDS011;54412;51.206;6.888;2023-07-24T07:07:30;3.53;;;3.23;;
5245;SDS011;54412;51.206;6.888;2023-07-24T07:09:56;5.53;;;4.23;;
5245;SDS011;54412;51.206;6.888;2023-07-24T07:12:21;5.80;;;3.40;;
5245;SDS011;54412;51.206;6.888;2023-07-24T07:14:47;6.03;;;3.70;;
5245;SDS011;54412;51.206;6.888;2023-07-24T07:17:13;4.53;;;3.70;;
5245;SDS011;54412;51.206;6.888;2023-07-24T07:19:38;4.23;;;3.10;;
5245;SDS011;54412;51.206;6.888;2023-07-24T07:22:05;3.87;;;3.33;;
5245;SDS011;54412;51.206;6.888;2023-07-24T07:24:31;6.07;;;3.67;;
5245;SDS011;54412;51.206;6.888;2023-07-24T07:26:57;3.73;;;3.43;;
5245;SDS011;54412;51.206;6.888;2023-07-24T07:29:22;5.20;;;3.67;;
5245;SDS011;54412;51.206;6.888;2023-07-24T07:31:48;8.40;;;3.63;;
5245;SDS011;54412;51.206;6.888;2023-07-24T07:34:13;5.67;;;3.30;;
5245;SDS011;54412;51.206;6.888;2023-07-24T07:36:39;4.67;;;3.30;;
5245;SDS011;54412;51.206;6.888;2023-07-24T07:39:05;5.70;;;3.67;;
5245;SDS011;54412;51.206;6.888;2023-07-24T07:41:30;4.70;;;3.70;;
5245;SDS011;54412;51.206;6.888;2023-07-24T07:43:57;8.17;;;3.77;;
5245;SDS011;54412;51.206;6.888;2023-07-24T07:46:22;5.97;;;3.80;;
5245;SDS011;54412;51.206;6.888;2023-07-24T07:48:48;4.10;;;3.50;;
5245;SDS011;54412;51.206;6.888;2023-07-24T07:51:14;3.27;;;2.97;;
5245;SDS011;54412;51.206;6.888;2023-07-24T07:53:40;3.20;;;2.90;;
5245;SDS011;54412;51.206;6.888;2023-07-24T07:56:06;4.10;;;3.80;;
5245;SDS011;54412;51.206;6.888;2023-07-24T07:58:32;5.30;;;3.33;;
5245;SDS011;54412;51.206;6.888;2023-07-24T08:00:57;4.10;;;3.20;;
5245;SDS011;54412;51.206;6.888;2023-07-24T08:03:23;4.70;;;3.30;;
5245;SDS011;54412;51.206;6.888;2023-07-24T08:05:49;3.40;;;2.80;;
5245;SDS011;54412;51.206;6.888;2023-07-24T08:08:14;3.37;;;3.00;;
5245;SDS011;54412;51.206;6.888;2023-07-24T08:10:40;5.93;;;2.73;;
5245;SDS011;54412;51.206;6.888;2023-07-24T08:13:06;10.20;;;3.47;;
5245;SDS011;54412;51.206;6.888;2023-07-24T08:15:35;4.00;;;2.90;;
5245;SDS011;54412;51.206;6.888;2023-07-24T08:18:02;3.07;;;2.77;;
5245;SDS011;54412;51.206;6.888;2023-07-24T08:20:29;6.00;;;2.90;;
5245;SDS011;54412;51.206;6.888;2023-07-24T08:22:55;5.33;;;2.90;;
5245;SDS011;54412;51.206;6.888;2023-07-24T08:25:21;4.07;;;3.53;;
5245;SDS011;54412;51.206;6.888;2023-07-24T08:27:47;3.30;;;2.70;;
5245;SDS011;54412;51.206;6.888;2023-07-24T08:30:12;3.90;;;3.03;;
5245;SDS011;54412;51.206;6.888;2023-07-24T08:32:39;4.07;;;3.00;;
5245;SDS011;54412;51.206;6.888;2023-07-24T08:35:05;3.83;;;2.70;;
5245;SDS011;54412;51.206;6.888;2023-07-24T08:37:31;3.97;;;3.60;;
5245;SDS011;54412;51.206;6.888;2023-07-24T08:39:57;4.53;;;2.93;;
5245;SDS011;54412;51.206;6.888;2023-07-24T08:42:22;3.07;;;2.87;;
5245;SDS011;54412;51.206;6.888;2023-07-24T08:44:48;4.40;;;3.77;;
5245;SDS011;54412;51.206;6.888;2023-07-24T08:47:15;3.60;;;2.50;;
5245;SDS011;54412;51.206;6.888;2023-07-24T08:49:42;2.83;;;2.60;;
5245;SDS011;54412;51.206;6.888;2023-07-24T08:52:09;5.83;;;2.80;;
5245;SDS011;54412;51.206;6.888;2023-07-24T08:54:36;5.33;;;3.30;;
5245;SDS011;54412;51.206;6.888;2023-07-24T08:57:04;5.73;;;3.30;;
5245;SDS011;54412;51.206;6.888;2023-07-24T08:59:34;3.13;;;2.93;;
5245;SDS011;54412;51.206;6.888;2023-07-24T09:02:00;3.60;;;3.17;;
5245;SDS011;54412;51.206;6.888;2023-07-24T09:04:26;5.60;;;3.60;;
5245;SDS011;54412;51.206;6.888;2023-07-24T09:06:52;5.17;;;3.50;;
5245;SDS011;54412;51.206;6.888;2023-07-24T09:09:21;3.93;;;3.37;;
5245;SDS011;54412;51.206;6.888;2023-07-24T09:11:48;4.60;;;3.17;;
5245;SDS011;54412;51.206;6.888;2023-07-24T09:14:34;4.20;;;2.90;;
5245;SDS011;54412;51.206;6.888;2023-07-24T09:17:07;3.37;;;3.07;;
5245;SDS011;54412;51.206;6.888;2023-07-24T09:19:35;3.60;;;3.30;;
5245;SDS011;54412;51.206;6.888;2023-07-24T09:22:14;3.67;;;3.17;;
5245;SDS011;54412;51.206;6.888;2023-07-24T09:24:51;3.67;;;3.33;;
5245;SDS011;54412;51.206;6.888;2023-07-24T09:27:24;3.50;;;2.90;;
5245;SDS011;54412;51.206;6.888;2023-07-24T09:29:54;4.33;;;3.40;;
5245;SDS011;54412;51.206;6.888;2023-07-24T09:32:25;3.40;;;3.10;;
5245;SDS011;54412;51.206;6.888;2023-07-24T09:34:52;5.67;;;3.00;;
5245;SDS011;54412;51.206;6.888;2023-07-24T09:37:25;7.50;;;3.47;;
5245;SDS011;54412;51.206;6.888;2023-07-24T09:39:54;6.20;;;4.00;;
5245;SDS011;54412;51.206;6.888;2023-07-24T09:42:29;9.80;;;3.40;;
5245;SDS011;54412;51.206;6.888;2023-07-24T09:44:57;4.30;;;3.50;;
5245;SDS011;54412;51.206;6.888;2023-07-24T09:47:23;3.07;;;2.80;;
5245;SDS011;54412;51.206;6.888;2023-07-24T09:49:50;3.77;;;3.47;;
5245;SDS011;54412;51.206;6.888;2023-07-24T09:52:18;4.20;;;3.53;;
5245;SDS011;54412;51.206;6.888;2023-07-24T09:54:54;3.50;;;3.20;;
5245;SDS011;54412;51.206;6.888;2023-07-24T09:57:24;4.60;;;2.90;;
5245;SDS011;54412;51.206;6.888;2023-07-24T09:59:53;4.70;;;3.20;;
5245;SDS011;54412;51.206;6.888;2023-07-24T10:02:21;3.87;;;3.23;;
5245;SDS011;54412;51.206;6.888;2023-07-24T10:04:49;5.07;;;3.60;;
5245;SDS011;54412;51.206;6.888;2023-07-24T10:07:15;3.40;;;3.10;;
5245;SDS011;54412;51.206;6.888;2023-07-24T10:09:44;3.27;;;2.97;;
5245;SDS011;54412;51.206;6.888;2023-07-24T10:12:10;4.27;;;3.43;;
5245;SDS011;54412;51.206;6.888;2023-07-24T10:14:36;3.90;;;2.77;;
5245;SDS011;54412;51.206;6.888;2023-07-24T10:17:03;3.47;;;3.17;;
5245;SDS011;54412;51.206;6.888;2023-07-24T10:19:36;6.73;;;3.43;;
5245;SDS011;54412;51.206;6.888;2023-07-24T10:22:09;3.70;;;2.83;;
5245;SDS011;54412;51.206;6.888;2023-07-24T10:24:46;4.17;;;3.10;;
5245;SDS011;54412;51.206;6.888;2023-07-24T10:27:12;5.17;;;3.23;;
5245;SDS011;54412;51.206;6.888;2023-07-24T10:29:38;4.40;;;3.20;;
5245;SDS011;54412;51.206;6.888;2023-07-24T10:32:16;3.13;;;2.40;;
5245;SDS011;54412;51.206;6.888;2023-07-24T10:34:43;2.80;;;2.60;;
5245;SDS011;54412;51.206;6.888;2023-07-24T10:37:08;4.23;;;3.10;;
5245;SDS011;54412;51.206;6.888;2023-07-24T10:39:38;3.53;;;3.07;;
5245;SDS011;54412;51.206;6.888;2023-07-24T10:42:09;3.13;;;2.93;;
5245;SDS011;54412;51.206;6.888;2023-07-24T10:44:36;4.80;;;2.80;;
5245;SDS011;54412;51.206;6.888;2023-07-24T10:47:02;3.20;;;2.90;;
5245;SDS011;54412;51.206;6.888;2023-07-24T10:49:28;4.67;;;3.60;;
5245;SDS011;54412;51.206;6.888;2023-07-24T10:51:55;3.23;;;2.93;;
5245;SDS011;54412;51.206;6.888;2023-07-24T10:54:24;2.90;;;2.60;;
5245;SDS011;54412;51.206;6.888;2023-07-24T10:56:57;4.90;;;2.60;;
5245;SDS011;54412;51.206;6.888;2023-07-24T10:59:35;5.13;;;2.60;;
5245;SDS011;54412;51.206;6.888;2023-07-24T11:02:02;3.77;;;3.03;;
5245;SDS011;54412;51.206;6.888;2023-07-24T11:04:29;3.33;;;2.37;;
5245;SDS011;54412;51.206;6.888;2023-07-24T11:06:55;4.63;;;4.00;;
5245;SDS011;54412;51.206;6.888;2023-07-24T11:09:22;3.30;;;3.00;;
5245;SDS011;54412;51.206;6.888;2023-07-24T11:11:59;3.17;;;2.87;;
5245;SDS011;54412;51.206;6.888;2023-07-24T11:14:33;5.40;;;2.50;;
5245;SDS011;54412;51.206;6.888;2023-07-24T11:16:59;2.90;;;2.67;;
5245;SDS011;54412;51.206;6.888;2023-07-24T11:19:24;5.20;;;2.87;;
5245;SDS011;54412;51.206;6.888;2023-07-24T11:21:50;3.80;;;2.53;;
5245;SDS011;54412;51.206;6.888;2023-07-24T11:24:17;2.40;;;2.30;;
5245;SDS011;54412;51.206;6.888;2023-07-24T11:26:43;2.30;;;2.07;;
5245;SDS011;54412;51.206;6.888;2023-07-24T11:29:12;3.60;;;2.53;;
5245;SDS011;54412;51.206;6.888;2023-07-24T11:31:38;2.73;;;2.50;;
5245;SDS011;54412;51.206;6.888;2023-07-24T11:34:04;3.07;;;2.87;;
5245;SDS011;54412;51.206;6.888;2023-07-24T11:36:31;2.67;;;2.47;;
5245;SDS011;54412;51.206;6.888;2023-07-24T11:38:57;2.23;;;2.13;;
5245;SDS011;54412;51.206;6.888;2023-07-24T11:41:23;3.33;;;3.00;;
5245;SDS011;54412;51.206;6.888;2023-07-24T11:43:50;2.70;;;2.50;;
5245;SDS011;54412;51.206;6.888;2023-07-24T11:46:26;5.40;;;2.57;;
5245;SDS011;54412;51.206;6.888;2023-07-24T11:48:54;3.77;;;2.33;;
5245;SDS011;54412;51.206;6.888;2023-07-24T11:51:22;3.47;;;1.70;;
5245;SDS011;54412;51.206;6.888;2023-07-24T11:53:49;3.60;;;1.73;;
5245;SDS011;54412;51.206;6.888;2023-07-24T11:56:16;3.60;;;2.13;;
5245;SDS011;54412;51.206;6.888;2023-07-24T11:58:44;2.33;;;1.80;;
5245;SDS011;54412;51.206;6.888;2023-07-24T12:01:12;4.60;;;1.70;;
5245;SDS011;54412;51.206;6.888;2023-07-24T12:03:38;3.03;;;2.03;;
5245;SDS011;54412;51.206;6.888;2023-07-24T12:06:05;3.47;;;2.20;;
5245;SDS011;54412;51.206;6.888;2023-07-24T12:08:39;6.87;;;3.07;;
5245;SDS011;54412;51.206;6.888;2023-07-24T12:11:05;2.97;;;2.67;;
5245;SDS011;54412;51.206;6.888;2023-07-24T12:13:45;2.60;;;2.13;;
5245;SDS011;54412;51.206;6.888;2023-07-24T12:16:11;2.57;;;2.20;;
5245;SDS011;54412;51.206;6.888;2023-07-24T12:18:36;3.30;;;2.60;;
5245;SDS011;54412;51.206;6.888;2023-07-24T12:21:02;6.00;;;2.20;;
5245;SDS011;54412;51.206;6.888;2023-07-24T12:23:28;5.10;;;2.53;;
5245;SDS011;54412;51.206;6.888;2023-07-24T12:25:53;2.40;;;1.80;;
5245;SDS011;54412;51.206;6.888;2023-07-24T12:28:19;3.60;;;2.20;;
5245;SDS011;54412;51.206;6.888;2023-07-24T12:30:45;2.37;;;2.17;;
5245;SDS011;54412;51.206;6.888;2023-07-24T12:33:13;2.07;;;1.67;;
5245;SDS011;54412;51.206;6.888;2023-07-24T12:35:39;2.90;;;2.20;;
5245;SDS011;54412;51.206;6.888;2023-07-24T12:38:05;2.27;;;2.17;;
5245;SDS011;54412;51.206;6.888;2023-07-24T12:40:31;1.70;;;1.60;;
5245;SDS011;54412;51.206;6.888;2023-07-24T12:42:56;3.00;;;2.20;;
5245;SDS011;54412;51.206;6.888;2023-07-24T12:45:22;2.13;;;1.90;;
5245;SDS011;54412;51.206;6.888;2023-07-24T12:47:47;2.53;;;2.00;;
5245;SDS011;54412;51.206;6.888;2023-07-24T12:50:13;2.57;;;2.13;;
5245;SDS011;54412;51.206;6.888;2023-07-24T12:52:39;2.00;;;1.90;;
5245;SDS011;54412;51.206;6.888;2023-07-24T12:55:05;1.43;;;1.43;;
5245;SDS011;54412;51.206;6.888;2023-07-24T12:57:31;2.57;;;2.33;;
5245;SDS011;54412;51.206;6.888;2023-07-24T12:59:56;3.33;;;1.90;;
5245;SDS011;54412;51.206;6.888;2023-07-24T13:02:22;4.00;;;1.70;;
5245;SDS011;54412;51.206;6.888;2023-07-24T13:04:48;2.50;;;2.30;;
5245;SDS011;54412;51.206;6.888;2023-07-24T13:07:14;2.40;;;1.87;;
5245;SDS011;54412;51.206;6.888;2023-07-24T13:09:39;4.50;;;1.57;;
5245;SDS011;54412;51.206;6.888;2023-07-24T13:12:05;2.33;;;2.03;;
5245;SDS011;54412;51.206;6.888;2023-07-24T13:14:32;2.43;;;2.33;;
5245;SDS011;54412;51.206;6.888;2023-07-24T13:16:57;2.50;;;2.07;;
5245;SDS011;54412;51.206;6.888;2023-07-24T13:19:23;1.97;;;1.87;;
5245;SDS011;54412;51.206;6.888;2023-07-24T13:21:49;1.77;;;1.67;;
5245;SDS011;54412;51.206;6.888;2023-07-24T13:24:14;3.03;;;1.97;;
5245;SDS011;54412;51.206;6.888;2023-07-24T13:26:40;2.40;;;2.20;;
5245;SDS011;54412;51.206;6.888;2023-07-24T13:29:06;2.27;;;2.07;;
5245;SDS011;54412;51.206;6.888;2023-07-24T13:31:32;1.60;;;1.50;;
5245;SDS011;54412;51.206;6.888;2023-07-24T13:33:57;1.67;;;1.57;;
5245;SDS011;54412;51.206;6.888;2023-07-24T13:36:23;1.73;;;1.60;;
5245;SDS011;54412;51.206;6.888;2023-07-24T13:38:49;2.23;;;1.77;;
5245;SDS011;54412;51.206;6.888;2023-07-24T13:41:15;1.47;;;1.17;;
5245;SDS011;54412;51.206;6.888;2023-07-24T13:43:41;1.77;;;1.67;;
5245;SDS011;54412;51.206;6.888;2023-07-24T13:46:07;1.60;;;1.50;;
5245;SDS011;54412;51.206;6.888;2023-07-24T13:48:33;2.03;;;1.80;;
5245;SDS011;54412;51.206;6.888;2023-07-24T13:50:59;2.83;;;1.80;;
5245;SDS011;54412;51.206;6.888;2023-07-24T13:53:25;1.93;;;1.80;;
5245;SDS011;54412;51.206;6.888;2023-07-24T13:55:50;1.60;;;1.50;;
5245;SDS011;54412;51.206;6.888;2023-07-24T13:58:16;1.67;;;1.57;;
5245;SDS011;54412;51.206;6.888;2023-07-24T14:00:42;3.03;;;1.70;;
5245;SDS011;54412;51.206;6.888;2023-07-24T14:03:08;1.70;;;1.60;;
5245;SDS011;54412;51.206;6.888;2023-07-24T14:05:34;2.53;;;1.60;;
5245;SDS011;54412;51.206;6.888;2023-07-24T14:08:01;1.30;;;1.30;;
5245;SDS011;54412;51.206;6.888;2023-07-24T14:10:28;4.23;;;2.07;;
5245;SDS011;54412;51.206;6.888;2023-07-24T14:12:53;1.80;;;1.70;;
5245;SDS011;54412;51.206;6.888;2023-07-24T14:15:19;1.80;;;1.67;;
5245;SDS011;54412;51.206;6.888;2023-07-24T14:17:45;1.43;;;1.43;;
5245;SDS011;54412;51.206;6.888;2023-07-24T14:20:10;1.87;;;1.73;;
5245;SDS011;54412;51.206;6.888;2023-07-24T14:22:37;3.20;;;1.50;;
5245;SDS011;54412;51.206;6.888;2023-07-24T14:25:03;1.53;;;1.43;;
5245;SDS011;54412;51.206;6.888;2023-07-24T14:27:30;1.30;;;1.30;;
5245;SDS011;54412;51.206;6.888;2023-07-24T14:29:56;2.93;;;1.50;;
5245;SDS011;54412;51.206;6.888;2023-07-24T14:32:22;2.00;;;1.40;;
5245;SDS011;54412;51.206;6.888;2023-07-24T14:34:50;1.37;;;1.37;;
5245;SDS011;54412;51.206;6.888;2023-07-24T14:37:17;1.17;;;1.17;;
5245;SDS011;54412;51.206;6.888;2023-07-24T14:39:44;1.40;;;1.17;;
5245;SDS011;54412;51.206;6.888;2023-07-24T14:42:10;1.73;;;1.63;;
5245;SDS011;54412;51.206;6.888;2023-07-24T14:44:36;1.30;;;1.20;;
5245;SDS011;54412;51.206;6.888;2023-07-24T14:47:02;1.77;;;1.30;;
5245;SDS011;54412;51.206;6.888;2023-07-24T14:49:28;1.20;;;1.20;;
5245;SDS011;54412;51.206;6.888;2023-07-24T14:51:54;1.53;;;1.43;;
5245;SDS011;54412;51.206;6.888;2023-07-24T14:54:19;2.47;;;1.70;;
5245;SDS011;54412;51.206;6.888;2023-07-24T14:56:45;1.77;;;1.37;;
5245;SDS011;54412;51.206;6.888;2023-07-24T14:59:11;1.60;;;1.50;;
5245;SDS011;54412;51.206;6.888;2023-07-24T15:01:36;2.27;;;1.70;;
5245;SDS011;54412;51.206;6.888;2023-07-24T15:04:02;1.67;;;1.57;;